createdAt,value
2022-10-16T00:01:25.203Z,1.53
2022-10-16T00:03:52.363Z,0.90
2022-10-16T00:06:21.087Z,0.83
2022-10-16T00:08:49.135Z,1.00
2022-10-16T00:11:21.862Z,1.00
2022-10-16T00:13:49.998Z,1.10
2022-10-16T00:16:16.942Z,1.10
2022-10-16T00:18:44.009Z,0.90
2022-10-16T00:21:14.008Z,0.80
2022-10-16T00:23:40.631Z,0.80
2022-10-16T00:26:11.725Z,0.80
2022-10-16T00:28:38.922Z,0.80
2022-10-16T00:31:10.593Z,0.90
2022-10-16T00:33:38.902Z,1.00
2022-10-16T00:36:08.165Z,0.70
2022-10-16T00:38:34.950Z,1.00
2022-10-16T00:41:01.853Z,0.90
2022-10-16T00:43:39.875Z,1.00
2022-10-16T00:46:12.407Z,0.90
2022-10-16T00:48:39.249Z,1.13
2022-10-16T00:51:07.951Z,1.20
2022-10-16T00:53:35.776Z,1.30
2022-10-16T00:56:03.109Z,1.27
2022-10-16T00:58:30.034Z,1.10
2022-10-16T01:00:56.646Z,1.40
2022-10-16T01:03:35.592Z,1.30
2022-10-16T01:09:11.941Z,1.20
2022-10-16T01:12:10.096Z,1.40
2022-10-16T01:14:41.835Z,1.00
2022-10-16T01:17:32.381Z,1.40
2022-10-16T01:20:06.062Z,1.20
2022-10-16T01:22:42.129Z,1.00
2022-10-16T01:25:22.958Z,1.10
2022-10-16T01:27:50.117Z,1.20
2022-10-16T01:30:29.378Z,1.20
2022-10-16T01:33:04.923Z,1.20
2022-10-16T01:35:37.064Z,1.20
2022-10-16T01:38:15.884Z,1.10
2022-10-16T01:40:48.437Z,1.00
2022-10-16T01:43:47.837Z,1.23
2022-10-16T01:46:17.784Z,0.90
2022-10-16T01:48:44.332Z,1.00
2022-10-16T01:51:15.160Z,2.20
2022-10-16T01:53:44.134Z,1.00
2022-10-16T01:56:13.175Z,0.80
2022-10-16T01:58:46.623Z,1.00
2022-10-16T02:03:53.209Z,1.00
2022-10-16T02:06:20.566Z,1.00
2022-10-16T02:08:47.694Z,0.87
2022-10-16T02:11:14.293Z,1.10
2022-10-16T02:13:51.945Z,0.97
2022-10-16T02:16:18.757Z,1.10
2022-10-16T02:18:45.814Z,1.10
2022-10-16T02:21:25.013Z,0.97
2022-10-16T02:23:55.741Z,1.10
2022-10-16T02:26:52.005Z,0.90
2022-10-16T02:29:23.970Z,1.10
2022-10-16T02:31:56.294Z,0.97
2022-10-16T02:34:25.706Z,0.80
2022-10-16T02:36:53.406Z,1.00
2022-10-16T02:39:21.291Z,0.87
2022-10-16T02:41:48.884Z,0.83
2022-10-16T02:44:15.429Z,0.87
2022-10-16T02:46:41.958Z,1.20
2022-10-16T02:49:08.498Z,0.90
2022-10-16T02:51:35.019Z,1.00
2022-10-16T02:54:02.954Z,0.90
2022-10-16T02:56:30.551Z,0.90
2022-10-16T02:58:57.235Z,0.80
2022-10-16T03:01:24.989Z,1.10
2022-10-16T03:03:51.661Z,1.00
2022-10-16T03:06:18.338Z,0.87
2022-10-16T03:08:44.910Z,0.93
2022-10-16T03:11:11.475Z,0.60
2022-10-16T03:13:38.042Z,0.73
2022-10-16T03:16:04.792Z,0.80
2022-10-16T03:18:31.341Z,1.00
2022-10-16T03:20:57.906Z,0.93
2022-10-16T03:23:24.475Z,0.80
2022-10-16T03:25:51.062Z,0.90
2022-10-16T03:28:17.595Z,0.80
2022-10-16T03:30:44.787Z,1.10
2022-10-16T03:33:11.392Z,0.80
2022-10-16T03:35:38.050Z,0.90
2022-10-16T03:38:04.713Z,0.90
2022-10-16T03:40:33.297Z,0.70
2022-10-16T03:43:00.204Z,1.00
2022-10-16T03:45:27.855Z,1.10
2022-10-16T03:47:54.388Z,1.00
2022-10-16T03:50:20.987Z,1.00
2022-10-16T03:52:47.522Z,0.90
2022-10-16T03:55:14.183Z,0.93
2022-10-16T03:57:40.731Z,1.10
2022-10-16T04:00:07.791Z,1.10
2022-10-16T04:02:34.441Z,1.00
2022-10-16T04:05:01.074Z,1.07
2022-10-16T04:07:28.059Z,1.00
2022-10-16T04:09:54.853Z,1.13
2022-10-16T04:12:21.385Z,1.47
2022-10-16T04:14:47.997Z,1.30
2022-10-16T04:17:14.676Z,1.30
2022-10-16T04:19:41.207Z,1.33
2022-10-16T04:22:07.798Z,1.27
2022-10-16T04:24:34.506Z,1.30
2022-10-16T04:27:01.099Z,1.50
2022-10-16T04:29:27.642Z,1.40
2022-10-16T04:31:54.185Z,1.30
2022-10-16T04:34:21.252Z,1.10
2022-10-16T04:36:51.081Z,1.60
2022-10-16T04:39:17.873Z,1.30
2022-10-16T04:41:44.659Z,1.27
2022-10-16T04:44:11.195Z,2.00
2022-10-16T04:46:37.735Z,1.40
2022-10-16T04:49:04.538Z,1.43
2022-10-16T04:51:31.081Z,1.60
2022-10-16T04:53:57.801Z,1.60
2022-10-16T04:56:25.193Z,1.67
2022-10-16T04:58:51.725Z,1.67
2022-10-16T05:01:18.279Z,1.90
2022-10-16T05:03:44.916Z,2.03
2022-10-16T05:06:11.453Z,1.80
2022-10-16T05:08:38.009Z,2.20
2022-10-16T05:11:04.773Z,1.93
2022-10-16T05:13:31.548Z,2.07
2022-10-16T05:15:58.159Z,2.10
2022-10-16T05:18:24.747Z,1.90
2022-10-16T05:20:51.265Z,1.57
2022-10-16T05:23:18.050Z,2.03
2022-10-16T05:25:44.595Z,1.83
2022-10-16T05:28:11.165Z,2.47
2022-10-16T05:30:38.537Z,1.97
2022-10-16T05:33:05.270Z,1.80
2022-10-16T05:35:31.878Z,2.40
2022-10-16T05:37:58.455Z,1.97
2022-10-16T05:40:25.087Z,2.07
2022-10-16T05:42:56.180Z,1.90
2022-10-16T05:45:22.781Z,1.90
2022-10-16T05:47:49.302Z,1.60
2022-10-16T05:50:15.835Z,1.77
2022-10-16T05:52:42.424Z,1.83
2022-10-16T05:55:09.247Z,1.90
2022-10-16T05:57:35.778Z,1.73
2022-10-16T06:00:02.390Z,2.07
2022-10-16T06:02:29.137Z,2.03
2022-10-16T06:04:55.735Z,1.80
2022-10-16T06:07:23.515Z,1.80
2022-10-16T06:09:51.696Z,1.60
2022-10-16T06:12:18.416Z,1.60
2022-10-16T06:14:46.026Z,1.50
2022-10-16T06:17:12.566Z,1.30
2022-10-16T06:19:39.097Z,1.50
2022-10-16T06:22:05.632Z,1.80
2022-10-16T06:24:32.186Z,1.70
2022-10-16T06:26:59.026Z,1.73
2022-10-16T06:29:25.566Z,1.53
2022-10-16T06:31:52.127Z,1.30
2022-10-16T06:34:18.656Z,1.13
2022-10-16T06:36:45.263Z,1.73
2022-10-16T06:39:11.805Z,1.23
2022-10-16T06:41:39.102Z,1.47
2022-10-16T06:44:08.877Z,1.40
2022-10-16T06:46:35.803Z,1.37
2022-10-16T06:49:02.399Z,0.90
2022-10-16T06:51:29.001Z,1.20
2022-10-16T06:54:05.246Z,1.00
2022-10-16T06:56:34.458Z,1.10
2022-10-16T06:59:01.750Z,1.20
2022-10-16T07:01:29.394Z,0.97
2022-10-16T07:03:56.158Z,1.07
2022-10-16T07:06:24.728Z,1.00
2022-10-16T07:08:52.011Z,0.80
2022-10-16T07:11:21.531Z,1.40
2022-10-16T07:13:52.682Z,1.20
2022-10-16T07:16:24.125Z,1.27
2022-10-16T07:18:55.081Z,0.93
2022-10-16T07:21:23.369Z,1.20
2022-10-16T07:23:55.153Z,1.20
2022-10-16T07:26:22.507Z,1.17
2022-10-16T07:28:49.468Z,1.03
2022-10-16T07:31:18.036Z,1.27
2022-10-16T07:33:46.090Z,1.00
2022-10-16T07:36:16.237Z,0.93
2022-10-16T07:38:43.334Z,0.90
2022-10-16T07:41:15.899Z,0.80
2022-10-16T07:43:47.974Z,1.03
2022-10-16T07:46:15.069Z,0.70
2022-10-16T07:48:41.937Z,0.90
2022-10-16T07:51:08.578Z,1.00
2022-10-16T07:53:35.248Z,0.90
2022-10-16T07:56:04.158Z,0.90
2022-10-16T07:58:31.156Z,0.73
2022-10-16T08:00:58.218Z,0.70
2022-10-16T08:03:25.899Z,0.90
2022-10-16T08:05:52.641Z,0.83
2022-10-16T08:08:20.161Z,0.90
2022-10-16T08:10:47.002Z,0.70
2022-10-16T08:13:16.026Z,0.60
2022-10-16T08:15:43.748Z,0.70
2022-10-16T08:18:11.434Z,0.90
2022-10-16T08:20:38.323Z,0.67
2022-10-16T08:23:05.098Z,0.83
2022-10-16T08:25:31.793Z,0.70
2022-10-16T08:27:58.455Z,0.40
2022-10-16T08:30:25.430Z,0.60
2022-10-16T08:32:53.560Z,0.50
2022-10-16T08:35:20.183Z,0.60
2022-10-16T08:37:46.797Z,0.80
2022-10-16T08:40:35.287Z,0.67
2022-10-16T08:43:07.702Z,0.80
2022-10-16T08:46:08.176Z,13.87
2022-10-16T08:48:50.133Z,0.60
2022-10-16T08:51:37.962Z,0.60
2022-10-16T08:54:22.780Z,0.60
2022-10-16T08:56:49.322Z,0.60
2022-10-16T08:59:17.908Z,0.70
2022-10-16T09:01:47.351Z,0.70
2022-10-16T09:04:45.440Z,0.77
2022-10-16T09:07:17.314Z,0.60
2022-10-16T09:10:13.745Z,0.90
2022-10-16T09:13:12.833Z,0.83
2022-10-16T09:15:47.737Z,0.43
2022-10-16T09:18:27.465Z,0.63
2022-10-16T09:21:05.383Z,0.50
2022-10-16T09:23:38.036Z,0.57
2022-10-16T09:26:06.813Z,1.13
2022-10-16T09:28:33.404Z,0.60
2022-10-16T09:30:59.988Z,0.80
2022-10-16T09:33:37.382Z,0.80
2022-10-16T09:36:06.646Z,0.70
2022-10-16T09:38:34.427Z,0.83
2022-10-16T09:41:03.832Z,0.67
2022-10-16T09:43:40.240Z,0.70
2022-10-16T09:46:09.881Z,0.70
2022-10-16T09:48:58.003Z,0.60
2022-10-16T09:51:31.875Z,0.70
2022-10-16T09:54:13.425Z,0.70
2022-10-16T09:56:40.406Z,0.80
2022-10-16T09:59:19.379Z,0.80
2022-10-16T10:01:51.815Z,0.93
2022-10-16T10:04:24.132Z,0.90
2022-10-16T10:06:56.198Z,0.90
2022-10-16T10:09:34.189Z,0.97
2022-10-16T10:14:48.216Z,0.73
2022-10-16T10:17:23.431Z,0.60
2022-10-16T10:19:59.633Z,0.53
2022-10-16T10:22:48.872Z,0.67
2022-10-16T10:25:49.763Z,0.77
2022-10-16T10:28:27.285Z,0.70
2022-10-16T10:31:04.335Z,0.70
2022-10-16T10:33:49.713Z,0.70
2022-10-16T10:36:30.294Z,0.70
2022-10-16T10:39:13.405Z,0.90
2022-10-16T10:41:53.139Z,0.80
2022-10-16T10:44:39.493Z,0.50
2022-10-16T10:47:31.656Z,0.60
2022-10-16T10:50:25.407Z,0.50
2022-10-16T10:53:00.697Z,0.80
2022-10-16T10:55:44.243Z,0.60
2022-10-16T10:58:37.587Z,0.90
2022-10-16T11:01:22.113Z,1.13
2022-10-16T11:04:17.890Z,1.00
2022-10-16T11:06:53.238Z,0.80
2022-10-16T11:09:25.373Z,0.50
2022-10-16T11:11:55.959Z,0.63
2022-10-16T11:14:41.640Z,0.50
2022-10-16T11:17:32.665Z,0.50
2022-10-16T11:20:14.341Z,0.77
2022-10-16T11:22:48.065Z,0.50
2022-10-16T11:25:27.891Z,0.70
2022-10-16T11:28:12.498Z,0.70
2022-10-16T11:30:51.237Z,0.60
2022-10-16T11:33:44.708Z,0.70
2022-10-16T11:36:26.901Z,0.77
2022-10-16T11:39:07.990Z,0.73
2022-10-16T11:41:44.541Z,0.75
2022-10-16T11:44:31.344Z,0.63
2022-10-16T11:50:18.479Z,0.75
2022-10-16T11:52:48.090Z,0.43
2022-10-16T11:55:44.556Z,0.75
2022-10-16T11:58:35.411Z,0.60
2022-10-16T12:01:17.390Z,0.63
2022-10-16T12:03:56.508Z,0.85
2022-10-16T12:06:24.747Z,0.45
2022-10-16T12:08:53.110Z,0.70
2022-10-16T12:11:28.926Z,0.70
2022-10-16T12:14:14.033Z,0.47
2022-10-16T12:17:00.608Z,0.80
2022-10-16T12:19:29.910Z,0.80
2022-10-16T12:22:02.181Z,0.60
2022-10-16T12:24:31.576Z,0.90
2022-10-16T12:26:58.321Z,0.60
2022-10-16T12:29:31.195Z,0.82
2022-10-16T12:31:58.548Z,0.68
2022-10-16T12:34:51.918Z,0.98
2022-10-16T12:37:27.435Z,0.93
2022-10-16T12:39:56.541Z,0.70
2022-10-16T12:42:29.524Z,0.70
2022-10-16T12:44:56.897Z,0.77
2022-10-16T12:47:30.794Z,0.50
2022-10-16T12:49:57.743Z,0.90
2022-10-16T12:52:36.592Z,0.50
2022-10-16T12:55:03.379Z,0.40
2022-10-16T12:57:51.606Z,0.50
2022-10-16T13:00:23.552Z,0.40
2022-10-16T13:03:12.778Z,0.40
2022-10-16T13:06:06.221Z,0.40
2022-10-16T13:08:54.473Z,0.50
2022-10-16T13:11:48.821Z,0.40
2022-10-16T13:14:31.811Z,0.35
2022-10-16T13:17:21.133Z,0.40
2022-10-16T13:20:20.023Z,0.60
2022-10-16T13:23:01.929Z,0.38
2022-10-16T13:25:46.449Z,0.40
2022-10-16T13:28:14.345Z,0.60
2022-10-16T13:30:51.834Z,0.55
2022-10-16T13:33:40.937Z,0.50
2022-10-16T13:36:08.011Z,0.50
2022-10-16T13:38:37.067Z,0.40
2022-10-16T13:41:15.837Z,0.50
2022-10-16T13:43:46.490Z,0.50
2022-10-16T13:46:16.351Z,0.40
2022-10-16T13:48:43.739Z,0.50
2022-10-16T13:51:19.002Z,0.50
2022-10-16T13:53:46.698Z,0.77
2022-10-16T13:56:20.089Z,0.50
2022-10-16T13:58:48.282Z,0.50
2022-10-16T14:01:21.787Z,0.73
2022-10-16T14:03:49.186Z,0.52
2022-10-16T14:06:19.318Z,0.65
2022-10-16T14:08:49.149Z,0.40
2022-10-16T14:11:24.416Z,0.52
2022-10-16T14:13:51.825Z,0.60
2022-10-16T14:16:30.950Z,0.40
2022-10-16T14:19:03.590Z,0.40
2022-10-16T14:21:30.644Z,0.50
2022-10-16T14:23:57.395Z,0.30
2022-10-16T14:26:27.028Z,0.35
2022-10-16T14:29:12.421Z,0.60
2022-10-16T14:31:40.592Z,0.30
2022-10-16T14:34:28.505Z,0.40
2022-10-16T14:39:41.050Z,0.57
2022-10-16T14:42:17.010Z,0.30
2022-10-16T14:44:43.694Z,0.70
2022-10-16T14:47:16.627Z,0.70
2022-10-16T14:49:43.491Z,0.60
2022-10-16T14:52:12.936Z,0.65
2022-10-16T14:54:39.829Z,0.80
2022-10-16T14:57:06.843Z,0.77
2022-10-16T14:59:39.258Z,0.70
2022-10-16T15:02:30.516Z,1.13
2022-10-16T15:04:57.768Z,1.05
2022-10-16T15:07:25.062Z,0.70
2022-10-16T15:09:51.803Z,0.93
2022-10-16T15:12:18.462Z,0.80
2022-10-16T15:14:45.175Z,0.93
2022-10-16T15:17:12.370Z,1.05
2022-10-16T15:19:39.135Z,0.77
2022-10-16T15:22:05.953Z,0.87
2022-10-16T15:24:32.508Z,0.55
2022-10-16T15:26:59.076Z,0.70
2022-10-16T15:29:25.623Z,0.70
2022-10-16T15:31:52.475Z,0.82
2022-10-16T15:34:20.402Z,0.90
2022-10-16T15:36:46.997Z,1.90
2022-10-16T15:39:15.891Z,9.87
2022-10-16T15:41:43.488Z,1.40
2022-10-16T15:44:10.067Z,1.57
2022-10-16T15:46:38.080Z,0.87
2022-10-16T15:49:05.002Z,1.20
2022-10-16T15:51:33.754Z,0.80
2022-10-16T15:54:02.869Z,0.80
2022-10-16T15:56:29.872Z,1.00
2022-10-16T15:58:58.023Z,1.00
2022-10-16T16:01:24.624Z,1.03
2022-10-16T16:03:54.860Z,1.23
2022-10-16T16:06:23.731Z,1.50
2022-10-16T16:08:51.325Z,1.30
2022-10-16T16:11:18.521Z,1.20
2022-10-16T16:13:45.212Z,0.90
2022-10-16T16:16:16.620Z,1.20
2022-10-16T16:18:44.332Z,1.23
2022-10-16T16:21:12.340Z,1.03
2022-10-16T16:23:39.133Z,1.00
2022-10-16T16:26:08.572Z,1.30
2022-10-16T16:28:38.880Z,1.10
2022-10-16T16:31:05.706Z,0.83
2022-10-16T16:33:32.959Z,1.50
2022-10-16T16:36:01.119Z,1.30
2022-10-16T16:38:28.559Z,1.47
2022-10-16T16:40:56.444Z,3.07
2022-10-16T16:43:27.610Z,1.90
2022-10-16T16:45:54.798Z,1.83
2022-10-16T16:48:22.620Z,2.20
2022-10-16T16:50:49.345Z,2.83
2022-10-16T16:53:16.580Z,1.70
2022-10-16T16:55:43.312Z,2.00
2022-10-16T16:58:10.187Z,2.07
2022-10-16T17:00:36.766Z,2.20
2022-10-16T17:03:03.866Z,2.43
2022-10-16T17:05:30.485Z,2.00
2022-10-16T17:07:57.020Z,2.43
2022-10-16T17:10:23.562Z,2.10
2022-10-16T17:12:50.216Z,1.97
2022-10-16T17:15:16.975Z,2.23
2022-10-16T17:17:43.593Z,1.60
2022-10-16T17:20:11.258Z,1.67
2022-10-16T17:22:37.787Z,1.30
2022-10-16T17:25:04.697Z,1.43
2022-10-16T17:27:31.286Z,1.50
2022-10-16T17:29:57.851Z,1.60
2022-10-16T17:32:24.709Z,1.67
2022-10-16T17:34:51.523Z,1.30
2022-10-16T17:37:18.382Z,2.07
2022-10-16T17:39:45.135Z,5.87
2022-10-16T17:42:11.707Z,6.67
2022-10-16T17:44:38.469Z,6.77
2022-10-16T17:47:05.269Z,7.70
2022-10-16T17:49:31.847Z,8.20
2022-10-16T17:51:59.048Z,6.30
2022-10-16T17:54:25.619Z,4.53
2022-10-16T17:56:52.331Z,2.30
2022-10-16T17:59:22.802Z,2.93
2022-10-16T18:01:52.564Z,1.90
2022-10-16T18:04:19.230Z,2.27
2022-10-16T18:06:47.279Z,1.80
2022-10-16T18:09:17.921Z,1.80
2022-10-16T18:11:44.671Z,1.53
2022-10-16T18:14:14.380Z,1.60
2022-10-16T18:16:41.054Z,1.70
2022-10-16T18:19:08.330Z,2.30
2022-10-16T18:21:34.914Z,5.87
2022-10-16T18:24:01.840Z,3.77
2022-10-16T18:26:29.018Z,2.47
2022-10-16T18:28:57.564Z,1.90
2022-10-16T18:31:26.164Z,2.40
2022-10-16T18:33:53.053Z,2.57
2022-10-16T18:36:22.846Z,2.77
2022-10-16T18:38:50.235Z,2.50
2022-10-16T18:41:17.190Z,4.70
2022-10-16T18:43:43.868Z,3.20
2022-10-16T18:46:13.266Z,10.80
2022-10-16T18:48:40.789Z,34.23
2022-10-16T18:51:14.947Z,6.40
2022-10-16T18:53:44.631Z,4.90
2022-10-16T18:56:15.009Z,4.53
2022-10-16T18:58:43.119Z,4.07
2022-10-16T19:01:16.402Z,3.83
2022-10-16T19:03:43.728Z,4.30
2022-10-16T19:06:13.157Z,3.27
2022-10-16T19:08:40.694Z,2.90
2022-10-16T19:11:17.043Z,3.70
2022-10-16T19:13:45.080Z,3.80
2022-10-16T19:16:23.667Z,4.07
2022-10-16T19:18:52.947Z,3.43
2022-10-16T19:21:20.629Z,3.33
2022-10-16T19:23:51.042Z,3.70
2022-10-16T19:26:18.970Z,3.50
2022-10-16T19:28:46.014Z,3.00
2022-10-16T19:31:18.436Z,3.00
2022-10-16T19:33:46.060Z,2.77
2022-10-16T19:36:27.149Z,3.50
2022-10-16T19:38:56.965Z,3.30
2022-10-16T19:41:25.052Z,3.20
2022-10-16T19:43:52.199Z,3.10
2022-10-16T19:46:25.738Z,3.10
2022-10-16T19:49:03.595Z,3.13
2022-10-16T19:51:30.697Z,3.00
2022-10-16T19:54:00.158Z,3.50
2022-10-16T19:56:28.845Z,3.40
2022-10-16T19:58:57.330Z,3.20
2022-10-16T20:01:25.547Z,3.10
2022-10-16T20:03:52.242Z,3.37
2022-10-16T20:06:20.085Z,3.27
2022-10-16T20:08:49.033Z,3.00
2022-10-16T20:11:18.777Z,2.93
2022-10-16T20:13:45.649Z,3.00
2022-10-16T20:16:13.728Z,3.20
2022-10-16T20:18:41.223Z,3.57
2022-10-16T20:21:22.298Z,3.90
2022-10-16T20:23:50.781Z,3.67
2022-10-16T20:26:19.970Z,3.30
2022-10-16T20:28:46.645Z,3.37
2022-10-16T20:31:22.692Z,4.20
2022-10-16T20:33:50.804Z,4.10
2022-10-16T20:36:18.411Z,3.90
2022-10-16T20:38:45.294Z,3.97
2022-10-16T20:41:12.684Z,3.97
2022-10-16T20:43:44.838Z,4.33
2022-10-16T20:46:14.189Z,4.70
2022-10-16T20:48:44.489Z,4.87
2022-10-16T20:51:17.654Z,4.53
2022-10-16T20:53:46.515Z,5.07
2022-10-16T20:56:17.286Z,5.30
2022-10-16T20:58:44.743Z,5.53
2022-10-16T21:01:17.857Z,5.53
2022-10-16T21:03:48.826Z,5.63
2022-10-16T21:06:15.410Z,5.53
2022-10-16T21:08:43.274Z,5.30
2022-10-16T21:11:11.994Z,5.90
2022-10-16T21:13:38.740Z,5.17
2022-10-16T21:16:05.950Z,5.43
2022-10-16T21:18:32.789Z,5.80
2022-10-16T21:20:59.375Z,5.50
2022-10-16T21:23:26.163Z,4.97
2022-10-16T21:25:52.899Z,6.07
2022-10-16T21:28:19.426Z,5.43
2022-10-16T21:30:45.975Z,5.17
2022-10-16T21:33:12.522Z,4.50
2022-10-16T21:35:39.123Z,5.10
2022-10-16T21:38:06.614Z,4.80
2022-10-16T21:40:34.292Z,3.83
2022-10-16T21:43:00.869Z,5.07
2022-10-16T21:45:27.422Z,4.40
2022-10-16T21:47:54.066Z,4.80
2022-10-16T21:50:20.846Z,4.40
2022-10-16T21:52:47.450Z,4.63
2022-10-16T21:55:14.081Z,4.43
2022-10-16T21:57:40.606Z,5.13
2022-10-16T22:00:09.622Z,4.87
2022-10-16T22:02:36.367Z,4.90
2022-10-16T22:05:03.281Z,4.83
2022-10-16T22:07:30.144Z,4.77
2022-10-16T22:09:57.032Z,4.77
2022-10-16T22:12:23.566Z,4.93
2022-10-16T22:14:50.102Z,4.77
2022-10-16T22:17:16.706Z,5.57
2022-10-16T22:19:43.270Z,5.37
2022-10-16T22:22:09.840Z,5.60
2022-10-16T22:24:36.966Z,6.43
2022-10-16T22:27:03.591Z,6.93
2022-10-16T22:29:30.137Z,7.97
2022-10-16T22:31:56.759Z,8.63
2022-10-16T22:34:23.356Z,8.80
2022-10-16T22:36:50.690Z,9.47
2022-10-16T22:39:18.066Z,10.63
2022-10-16T22:41:44.750Z,9.97
2022-10-16T22:44:12.872Z,10.57
2022-10-16T22:46:39.654Z,11.30
2022-10-16T22:49:06.221Z,10.23
2022-10-16T22:51:32.796Z,11.10
2022-10-16T22:53:59.397Z,11.27
2022-10-16T22:56:26.267Z,10.40
2022-10-16T22:58:53.126Z,10.90
2022-10-16T23:01:27.227Z,10.70
2022-10-16T23:03:53.993Z,10.00
2022-10-16T23:06:20.970Z,10.30
2022-10-16T23:08:52.994Z,10.60
2022-10-16T23:11:19.634Z,10.50
2022-10-16T23:13:46.647Z,10.20
2022-10-16T23:16:15.795Z,9.80
2022-10-16T23:18:43.414Z,8.87
2022-10-16T23:21:16.109Z,9.37
2022-10-16T23:23:43.483Z,9.53
2022-10-16T23:26:16.473Z,9.83
2022-10-16T23:28:43.130Z,9.17
2022-10-16T23:31:11.536Z,9.27
2022-10-16T23:33:39.139Z,8.77
2022-10-16T23:36:10.997Z,9.33
2022-10-16T23:38:38.058Z,9.40
2022-10-16T23:41:05.234Z,9.60
2022-10-16T23:43:31.911Z,9.93
2022-10-16T23:45:58.637Z,9.33
2022-10-16T23:48:25.338Z,9.57
2022-10-16T23:50:51.927Z,10.23
2022-10-16T23:53:18.682Z,10.53
2022-10-16T23:55:45.261Z,10.00
2022-10-16T23:58:11.828Z,10.40
